»·PEaware :: N224TR KSNA-KPSP

N224TR :: KSNA-KPSP

FLIGHT INFORMATION

Flight Status: Arrived
Operator: Privately registered:
United States
More flights under this callsign
Pilot: Logan D. (20254)
Aircraft: Unknown
(L39)
More flights by this aircraft type
Origin: KSNA John Wayne-Orange Co
United States
Destination: KPSP Palm Springs Intl
United States
More flights between these airports :: More routes between these airports
Route:
File this flight plan on PilotEdge
Remarks:
Altitude:
(Current/Filed)
5,500ft
Speed:
(Current/Filed)
200kts
Departed: 28-Dec-20 11:51 AM
Arrived: 28-Dec-20 12:33 PM
Distance/Time
Traveled:
68nm/0:42
Distance/Time
To Go:
Arrived

Flight Plot

Page will automatically refresh every two minutes.


Map Options




Map Legend


Flown Route
Filed Route
Departure Airport
Arrival Airport
Navaid (VOR, NDB)
Fix

Horizontal Profiles

Position Reports

Time Latitude Longitude Heading Altitude Ground
Speed
28-Dec-20 11:34 33.671412 -117.867353 209 62ft 0kts
28-Dec-20 11:35 33.671412 -117.867353 209 62ft 0kts
28-Dec-20 11:36 33.671412 -117.867353 209 62ft 0kts
28-Dec-20 11:37 33.671412 -117.867353 209 62ft 0kts
28-Dec-20 11:38 33.671412 -117.867353 209 62ft 0kts
28-Dec-20 11:39 33.671412 -117.867353 209 62ft 0kts
28-Dec-20 11:40 33.671412 -117.867353 209 62ft 0kts
28-Dec-20 11:41 33.671412 -117.867353 209 62ft 0kts
28-Dec-20 11:42 33.671412 -117.867353 209 62ft 0kts
28-Dec-20 11:43 33.671412 -117.867353 209 62ft 0kts
28-Dec-20 11:44 33.671412 -117.867353 209 62ft 0kts
28-Dec-20 11:45 33.672290 -117.867953 27 62ft 13kts
28-Dec-20 11:46 33.675557 -117.865437 28 62ft 11kts
28-Dec-20 11:47 33.678582 -117.863570 28 62ft 12kts
28-Dec-20 11:48 33.680626 -117.863166 296 62ft 0kts
28-Dec-20 11:49 33.681270 -117.865303 207 62ft 4kts
28-Dec-20 11:50 33.658948 -117.876690 192 565ft 193kts
28-Dec-20 11:51 33.613043 -117.883994 186 1853ft 161kts
28-Dec-20 11:52 33.566166 -117.889325 187 2930ft 185kts
28-Dec-20 11:53 33.543378 -117.849178 72 4299ft 197kts
28-Dec-20 11:54 33.575545 -117.804227 38 5677ft 189kts
28-Dec-20 11:55 33.617123 -117.770709 28 5510ft 182kts
28-Dec-20 11:56 33.661613 -117.746946 19 5480ft 184kts
28-Dec-20 11:57 33.708721 -117.722395 25 5557ft 192kts
28-Dec-20 11:58 33.751864 -117.686053 62 5584ft 217kts
28-Dec-20 11:59 33.773183 -117.633523 63 5465ft 189kts
28-Dec-20 12:00 33.798697 -117.575687 61 5525ft 173kts
28-Dec-20 12:01 33.816027 -117.520917 79 5642ft 176kts
28-Dec-20 12:02 33.826871 -117.466023 72 5887ft 185kts
28-Dec-20 12:03 33.842559 -117.407860 70 5946ft 178kts
28-Dec-20 12:04 33.855967 -117.352070 75 5998ft 175kts
28-Dec-20 12:05 33.868918 -117.297234 74 5783ft 165kts
28-Dec-20 12:06 33.883044 -117.238514 77 5955ft 185kts
28-Dec-20 12:07 33.892853 -117.178098 77 5873ft 185kts
28-Dec-20 12:08 33.904567 -117.124023 77 5691ft 147kts
28-Dec-20 12:09 33.912767 -117.062408 80 5591ft 205kts
28-Dec-20 12:10 33.917771 -116.999129 90 5382ft 168kts
28-Dec-20 12:11 33.917393 -116.935220 89 5452ft 217kts
28-Dec-20 12:12 33.918431 -116.866022 87 5786ft 204kts
28-Dec-20 12:13 33.922441 -116.792052 85 5672ft 236kts
28-Dec-20 12:14 33.924562 -116.719064 92 5484ft 222kts
28-Dec-20 12:15 33.921436 -116.647525 95 5501ft 190kts
28-Dec-20 12:16 33.907190 -116.580917 110 5646ft 213kts
28-Dec-20 12:17 33.889096 -116.523448 112 5232ft 197kts
28-Dec-20 12:18 33.866027 -116.459581 121 5097ft 188kts
28-Dec-20 12:19 33.832298 -116.395195 124 5437ft 238kts
28-Dec-20 12:20 33.793126 -116.338608 133 5770ft 174kts
28-Dec-20 12:21 33.750312 -116.297293 149 5900ft 194kts
28-Dec-20 12:22 33.707584 -116.264677 155 5727ft 188kts
28-Dec-20 12:24 33.661067 -116.235440 104 5971ft 195kts
28-Dec-20 12:25 33.696035 -116.233001 299 3938ft 196kts
28-Dec-20 12:26 33.719681 -116.293951 292 3434ft 215kts
28-Dec-20 12:27 33.738904 -116.351546 287 2896ft 193kts
28-Dec-20 12:28 33.753074 -116.417571 284 2496ft 200kts
28-Dec-20 12:29 33.782190 -116.465538 325 1429ft 195kts
28-Dec-20 12:30 33.824747 -116.502077 357 1090ft 177kts
28-Dec-20 12:31 33.811029 -116.464845 160 1581ft 160kts
28-Dec-20 12:32 33.814286 -116.493948 323 706ft 132kts
28-Dec-20 12:33 33.828947 -116.508036 254 483ft 11kts
28-Dec-20 12:34 33.828413 -116.508560 152 483ft 13kts
28-Dec-20 12:35 33.825342 -116.507718 271 483ft 10kts
28-Dec-20 12:36 33.825703 -116.509328 269 483ft 0kts
28-Dec-20 12:37 33.825703 -116.509328 269 483ft 0kts
28-Dec-20 12:38 33.825703 -116.509328 269 483ft 0kts
28-Dec-20 12:38 33.825703 -116.509328 269 483ft 0kts
28-Dec-20 12:40 33.825703 -116.509328 269 483ft 0kts
28-Dec-20 12:40 33.825703 -116.509328 269 483ft 0kts
28-Dec-20 12:42 33.825703 -116.509328 269 483ft 0kts
28-Dec-20 12:42 33.825703 -116.509328 269 483ft 0kts
28-Dec-20 12:43 33.825703 -116.509328 269 483ft 0kts
28-Dec-20 12:44 33.825703 -116.509328 269 483ft 0kts
28-Dec-20 12:45 33.825703 -116.509328 269 483ft 0kts
28-Dec-20 12:46 33.825703 -116.509328 269 483ft 0kts

Navigation Log

Ident Type
Flight plan parsing failed, navigation log unavailable